createdAt,value
2023-03-21T00:00:16.368Z,100458.08
2023-03-21T00:03:05.090Z,100453.75
2023-03-21T00:06:32.948Z,100450.38
2023-03-21T00:10:08.873Z,100448.31
2023-03-21T00:13:29.018Z,100449.09
2023-03-21T00:16:56.754Z,100449.54
2023-03-21T00:20:04.489Z,100452.64
2023-03-21T00:23:33.530Z,100448.25
2023-03-21T00:27:21.928Z,100449.77
2023-03-21T00:30:29.313Z,100448.51
2023-03-21T00:33:57.235Z,100453.65
2023-03-21T00:37:25.301Z,100454.04
2023-03-21T00:40:53.348Z,100454.09
2023-03-21T00:44:21.253Z,100451.13
2023-03-21T00:47:49.404Z,100449.15
2023-03-21T00:51:17.412Z,100448.59
2023-03-21T00:54:45.518Z,100446.29
2023-03-21T00:58:13.565Z,100439.24
2023-03-21T01:01:42.555Z,100429.98
2023-03-21T01:05:09.568Z,100428.42
2023-03-21T01:08:26.518Z,100424.84
2023-03-21T01:11:46.561Z,100423.47
2023-03-21T01:15:14.556Z,100422.30
2023-03-21T01:18:42.521Z,100424.27
2023-03-21T01:22:10.596Z,100420.63
2023-03-21T01:25:22.736Z,100423.83
2023-03-21T01:28:47.658Z,100422.20
2023-03-21T01:32:15.655Z,100422.83
2023-03-21T01:35:25.039Z,100425.92
2023-03-21T01:38:52.595Z,100430.77
2023-03-21T01:42:20.520Z,100433.27
2023-03-21T01:45:48.403Z,100431.46
2023-03-21T01:49:19.769Z,100429.81
2023-03-21T01:52:47.548Z,100427.87
2023-03-21T01:56:15.307Z,100429.54
2023-03-21T01:59:43.216Z,100432.89
2023-03-21T02:03:35.705Z,100426.88
2023-03-21T02:06:57.211Z,100424.84
2023-03-21T02:10:28.104Z,100425.86
2023-03-21T02:14:05.918Z,100423.50
2023-03-21T02:17:23.861Z,100424.63
2023-03-21T02:20:51.705Z,100423.09
2023-03-21T02:24:20.081Z,100426.77
2023-03-21T02:27:47.965Z,100424.16
2023-03-21T02:30:58.452Z,100420.42
2023-03-21T02:34:06.599Z,100422.01
2023-03-21T02:37:17.143Z,100420.09
2023-03-21T02:40:43.594Z,100423.53
2023-03-21T02:44:11.415Z,100419.70
2023-03-21T02:47:39.485Z,100415.14
2023-03-21T02:51:07.176Z,100415.52
2023-03-21T02:54:47.321Z,100418.28
2023-03-21T02:58:12.351Z,100419.64
2023-03-21T03:01:30.920Z,100412.89
2023-03-21T03:04:58.930Z,100417.56
2023-03-21T03:08:38.545Z,100415.33
2023-03-21T03:11:56.009Z,100415.13
2023-03-21T03:15:24.215Z,100409.58
2023-03-21T03:18:52.124Z,100409.21
2023-03-21T03:21:42.158Z,100411.81
2023-03-21T03:24:51.127Z,100401.72
2023-03-21T03:28:19.001Z,100400.44
2023-03-21T03:31:46.798Z,100396.80
2023-03-21T03:34:56.693Z,100397.83
2023-03-21T03:38:07.749Z,100395.26
2023-03-21T03:42:00.798Z,100394.11
2023-03-21T03:45:03.690Z,100388.05
2023-03-21T03:48:12.518Z,100393.86
2023-03-21T03:51:40.332Z,100395.51
2023-03-21T03:55:10.935Z,100393.80
2023-03-21T03:58:45.207Z,100390.17
2023-03-21T04:02:06.862Z,100388.23
2023-03-21T04:05:15.931Z,100385.63
2023-03-21T04:08:43.883Z,100385.29
2023-03-21T04:12:11.843Z,100386.02
2023-03-21T04:15:39.710Z,100388.69
2023-03-21T04:19:07.650Z,100388.27
2023-03-21T04:22:16.803Z,100387.31
2023-03-21T04:25:33.286Z,100390.27
2023-03-21T04:28:52.791Z,100389.10
2023-03-21T04:31:45.528Z,100390.83
2023-03-21T04:35:13.417Z,100393.38
2023-03-21T04:38:41.476Z,100395.31
2023-03-21T04:42:09.494Z,100404.64
2023-03-21T04:45:37.396Z,100400.58
2023-03-21T04:48:45.754Z,100404.33
2023-03-21T04:52:14.438Z,100402.36
2023-03-21T04:55:42.435Z,100408.80
2023-03-21T04:58:51.703Z,100413.05
2023-03-21T05:02:19.452Z,100407.81
2023-03-21T05:05:47.428Z,100411.10
2023-03-21T05:08:59.103Z,100411.11
2023-03-21T05:12:08.027Z,100414.35
2023-03-21T05:15:36.043Z,100413.09
2023-03-21T05:19:03.775Z,100409.98
2023-03-21T05:22:31.823Z,100408.64
2023-03-21T05:25:41.494Z,100411.84
2023-03-21T05:29:12.142Z,100405.52
2023-03-21T05:32:40.057Z,100406.73
2023-03-21T05:36:07.977Z,100407.66
2023-03-21T05:39:35.914Z,100408.98
2023-03-21T05:42:44.806Z,100408.98
2023-03-21T05:46:12.526Z,100408.84
2023-03-21T05:49:20.972Z,100415.27
2023-03-21T05:52:30.025Z,100414.98
2023-03-21T05:55:57.693Z,100415.97
2023-03-21T05:59:28.067Z,100414.54
2023-03-21T06:02:44.276Z,100423.14
2023-03-21T06:06:18.226Z,100428.09
2023-03-21T06:09:46.080Z,100433.38
2023-03-21T06:13:13.809Z,100440.10
2023-03-21T06:16:41.872Z,100440.27
2023-03-21T06:20:09.657Z,100442.41
2023-03-21T06:23:37.574Z,100437.41
2023-03-21T06:27:05.454Z,100441.52
2023-03-21T06:30:36.220Z,100439.35
2023-03-21T06:34:04.214Z,100439.99
2023-03-21T06:37:32.228Z,100443.18
2023-03-21T06:41:00.257Z,100439.54
2023-03-21T06:44:28.130Z,100440.61
2023-03-21T06:47:56.192Z,100439.16
2023-03-21T06:51:24.096Z,100443.48
2023-03-21T06:54:52.101Z,100444.41
2023-03-21T06:58:00.999Z,100448.61
2023-03-21T07:01:28.916Z,100450.27
2023-03-21T07:04:57.077Z,100450.73
2023-03-21T07:08:06.096Z,100453.50
2023-03-21T07:11:15.175Z,100449.61
2023-03-21T07:14:23.952Z,100448.92
2023-03-21T07:17:51.797Z,100450.24
2023-03-21T07:20:20.111Z,100456.23
2023-03-21T07:23:29.101Z,100453.16
2023-03-21T07:26:37.340Z,100454.76
2023-03-21T07:29:45.685Z,100450.48
2023-03-21T07:32:57.488Z,100458.98
2023-03-21T07:36:25.501Z,100471.08
2023-03-21T07:39:41.927Z,100477.83
2023-03-21T07:42:35.026Z,100476.45
2023-03-21T07:46:02.987Z,100476.36
2023-03-21T07:48:57.033Z,100475.23
2023-03-21T07:52:06.060Z,100469.05
2023-03-21T07:55:33.907Z,100465.16
2023-03-21T07:59:02.139Z,100461.27
2023-03-21T08:02:11.347Z,100453.95
2023-03-21T08:05:39.337Z,100456.67
2023-03-21T08:08:27.707Z,100458.92
2023-03-21T08:11:16.376Z,100459.86
2023-03-21T08:14:06.393Z,100468.24
2023-03-21T08:17:34.094Z,100467.15
2023-03-21T08:20:43.886Z,100470.85
2023-03-21T08:23:55.723Z,100472.91
2023-03-21T08:27:05.458Z,100473.70
2023-03-21T08:30:33.929Z,100474.64
2023-03-21T08:34:01.904Z,100470.88
2023-03-21T08:37:29.775Z,100471.41
2023-03-21T08:40:38.620Z,100469.27
2023-03-21T08:43:49.006Z,100472.33
2023-03-21T08:47:16.809Z,100471.45
2023-03-21T08:50:44.882Z,100462.28
2023-03-21T08:53:21.442Z,100459.73
2023-03-21T08:56:49.364Z,100455.10
2023-03-21T08:59:58.160Z,100451.95
2023-03-21T09:03:06.977Z,100454.95
2023-03-21T09:06:34.821Z,100455.42
2023-03-21T09:10:19.887Z,100456.64
2023-03-21T09:13:31.265Z,100458.75
2023-03-21T09:16:39.862Z,100459.87
2023-03-21T09:19:27.895Z,100461.17
2023-03-21T09:21:58.751Z,100460.49
2023-03-21T09:25:26.634Z,100460.40
2023-03-21T09:28:54.706Z,100456.88
2023-03-21T09:32:23.359Z,100453.55
2023-03-21T09:34:53.288Z,100457.80
2023-03-21T09:38:21.206Z,100452.78
2023-03-21T09:41:48.917Z,100451.46
2023-03-21T09:44:57.482Z,100447.76
2023-03-21T09:48:08.679Z,100445.20
2023-03-21T09:50:57.446Z,100442.99
2023-03-21T09:54:25.343Z,100436.85
2023-03-21T09:57:53.096Z,100438.40
2023-03-21T10:01:22.546Z,100435.77
2023-03-21T10:04:50.539Z,100431.56
2023-03-21T10:07:59.064Z,100430.70
2023-03-21T10:11:26.893Z,100427.64
2023-03-21T10:14:35.328Z,100424.86
2023-03-21T10:18:03.317Z,100423.02
2023-03-21T10:21:58.709Z,100421.47
2023-03-21T10:24:25.336Z,100415.73
2023-03-21T10:27:41.048Z,100417.80
2023-03-21T10:30:49.874Z,100417.00
2023-03-21T10:33:26.945Z,100420.98
2023-03-21T10:36:54.661Z,100416.66
2023-03-21T10:40:03.951Z,100417.23
2023-03-21T10:43:31.612Z,100412.35
2023-03-21T10:46:59.668Z,100411.98
2023-03-21T10:50:28.183Z,100411.11
2023-03-21T10:53:36.496Z,100408.26
2023-03-21T10:57:04.365Z,100407.73
2023-03-21T11:00:32.322Z,100400.05
2023-03-21T11:04:00.339Z,100392.17
2023-03-21T11:07:08.559Z,100389.89
2023-03-21T11:10:37.068Z,100390.85
2023-03-21T11:13:46.982Z,100378.08
2023-03-21T11:16:57.310Z,100377.32
2023-03-21T11:20:25.187Z,100371.20
2023-03-21T11:23:53.073Z,100365.48
2023-03-21T11:27:01.747Z,100363.93
2023-03-21T11:30:10.793Z,100356.27
2023-03-21T11:33:19.536Z,100355.69
2023-03-21T11:36:12.685Z,100353.64
2023-03-21T11:39:40.508Z,100339.78
2023-03-21T11:43:08.601Z,100338.75
2023-03-21T11:46:32.518Z,100332.73
2023-03-21T11:49:41.587Z,100325.75
2023-03-21T11:52:32.441Z,100320.36
2023-03-21T11:55:03.105Z,100315.45
2023-03-21T11:58:27.326Z,100315.06
2023-03-21T12:01:55.230Z,100302.77
2023-03-21T12:05:23.214Z,100299.79
2023-03-21T12:08:50.926Z,100302.89
2023-03-21T12:12:14.937Z,100297.69
2023-03-21T12:15:23.828Z,100291.39
2023-03-21T12:18:28.470Z,100292.72
2023-03-21T12:21:53.935Z,100282.98
2023-03-21T12:25:20.056Z,100277.02
2023-03-21T12:28:33.419Z,100278.86
2023-03-21T12:32:00.114Z,100268.24
2023-03-21T12:35:28.058Z,100264.05
2023-03-21T12:38:51.589Z,100259.69
2023-03-21T12:42:19.352Z,100257.73
2023-03-21T12:45:34.252Z,100255.36
2023-03-21T12:48:56.361Z,100246.58
2023-03-21T12:52:04.367Z,100255.36
2023-03-21T12:55:13.091Z,100245.80
2023-03-21T12:58:09.805Z,100244.20
2023-03-21T13:00:58.319Z,100238.73
2023-03-21T13:04:03.668Z,100236.63
2023-03-21T13:07:00.790Z,100228.97
2023-03-21T13:10:08.952Z,100229.90
2023-03-21T13:13:13.946Z,100219.46
2023-03-21T13:16:23.144Z,100214.34
2023-03-21T13:19:12.108Z,100208.45
2023-03-21T13:22:40.059Z,100210.08
2023-03-21T13:25:28.260Z,100211.33
2023-03-21T13:28:36.577Z,100207.20
2023-03-21T13:32:04.648Z,100204.70
2023-03-21T13:35:10.328Z,100203.40
2023-03-21T13:38:22.598Z,100206.77
2023-03-21T13:41:50.390Z,100206.69
2023-03-21T13:44:50.720Z,100204.02
2023-03-21T13:48:18.736Z,100201.56
2023-03-21T13:51:06.677Z,100197.84
2023-03-21T13:54:04.883Z,100201.84
2023-03-21T13:56:54.788Z,100197.04
2023-03-21T14:00:10.543Z,100187.71
2023-03-21T14:03:38.201Z,100189.24
2023-03-21T14:07:06.061Z,100186.57
2023-03-21T14:10:14.861Z,100190.58
2023-03-21T14:13:26.864Z,100185.92
2023-03-21T14:16:36.457Z,100182.66
2023-03-21T14:20:04.187Z,100183.41
2023-03-21T14:22:53.364Z,100171.23
2023-03-21T14:26:22.157Z,100173.94
2023-03-21T14:29:31.856Z,100172.98
2023-03-21T14:32:23.467Z,100168.23
2023-03-21T14:35:51.491Z,100166.41
2023-03-21T14:39:09.512Z,100164.14
2023-03-21T14:42:21.271Z,100160.15
2023-03-21T14:45:48.999Z,100161.52
2023-03-21T14:48:58.047Z,100162.17
2023-03-21T14:52:25.773Z,100164.12
2023-03-21T14:55:35.872Z,100162.15
2023-03-21T14:59:03.630Z,100156.83
2023-03-21T15:01:53.740Z,100157.86
2023-03-21T15:05:02.729Z,100153.15
2023-03-21T15:07:52.881Z,100154.29
2023-03-21T15:11:09.656Z,100150.15
2023-03-21T15:14:12.364Z,100154.20
2023-03-21T15:17:40.340Z,100154.37
2023-03-21T15:21:08.195Z,100151.98
2023-03-21T15:24:17.058Z,100152.14
2023-03-21T15:27:44.826Z,100150.70
2023-03-21T15:31:12.953Z,100147.23
2023-03-21T15:33:43.777Z,100147.45
2023-03-21T15:37:11.413Z,100139.45
2023-03-21T15:40:20.314Z,100144.39
2023-03-21T15:43:12.736Z,100141.99
2023-03-21T15:46:40.804Z,100143.55
2023-03-21T15:49:50.961Z,100142.78
2023-03-21T15:52:20.540Z,100142.27
2023-03-21T15:55:30.588Z,100139.55
2023-03-21T15:58:19.811Z,100138.66
2023-03-21T16:01:08.015Z,100141.70
2023-03-21T16:04:35.863Z,100141.42
2023-03-21T16:07:25.723Z,100143.11
2023-03-21T16:10:53.721Z,100148.52
2023-03-21T16:14:21.845Z,100150.74
2023-03-21T16:16:55.125Z,100151.16
2023-03-21T16:20:06.157Z,100156.11
2023-03-21T16:22:38.953Z,100155.82
2023-03-21T16:25:47.668Z,100157.98
2023-03-21T16:28:33.238Z,100156.01
2023-03-21T16:31:42.835Z,100154.10
2023-03-21T16:34:36.409Z,100161.52
2023-03-21T16:38:04.413Z,100163.83
2023-03-21T16:41:13.406Z,100168.46
2023-03-21T16:44:36.878Z,100167.77
2023-03-21T16:47:30.744Z,100172.84
2023-03-21T16:50:54.352Z,100171.79
2023-03-21T16:54:19.132Z,100176.58
2023-03-21T16:57:46.859Z,100175.73
2023-03-21T17:01:14.929Z,100181.33
2023-03-21T17:04:39.294Z,100181.73
2023-03-21T17:08:07.069Z,100186.48
2023-03-21T17:11:34.716Z,100187.16
2023-03-21T17:15:02.447Z,100187.39
2023-03-21T17:18:25.740Z,100188.05
2023-03-21T17:21:53.685Z,100188.05
2023-03-21T17:25:01.904Z,100189.70
2023-03-21T17:27:53.889Z,100190.36
2023-03-21T17:30:59.016Z,100192.56
2023-03-21T17:34:07.775Z,100194.52
2023-03-21T17:37:17.290Z,100197.19
2023-03-21T17:40:45.302Z,100195.79
2023-03-21T17:43:49.940Z,100193.71
2023-03-21T17:46:43.209Z,100194.39
2023-03-21T17:49:36.512Z,100193.02
2023-03-21T17:52:46.230Z,100194.21
2023-03-21T17:55:51.963Z,100198.60
2023-03-21T17:58:57.488Z,100199.80
2023-03-21T18:01:46.425Z,100206.01
2023-03-21T18:05:14.532Z,100207.16
2023-03-21T18:08:12.886Z,100208.28
2023-03-21T18:11:20.940Z,100207.16
2023-03-21T18:14:44.773Z,100214.33
2023-03-21T18:18:08.627Z,100214.00
2023-03-21T18:21:36.374Z,100213.88
2023-03-21T18:24:52.425Z,100216.79
2023-03-21T18:28:11.499Z,100216.96
2023-03-21T18:31:30.323Z,100219.44
2023-03-21T18:34:32.156Z,100218.25
2023-03-21T18:37:35.286Z,100224.40
2023-03-21T18:41:00.771Z,100223.51
2023-03-21T18:44:13.596Z,100226.42
2023-03-21T18:47:33.611Z,100230.92
2023-03-21T18:51:01.497Z,100238.65
2023-03-21T18:54:06.377Z,100237.41
2023-03-21T19:00:11.109Z,100236.33
2023-03-21T19:03:34.159Z,100235.85
2023-03-21T19:06:09.997Z,100234.98
2023-03-21T19:09:29.448Z,100238.30
2023-03-21T19:12:33.967Z,100233.91
2023-03-21T19:15:39.365Z,100232.68
2023-03-21T19:19:02.586Z,100235.06
2023-03-21T19:22:30.424Z,100237.25
2023-03-21T19:25:33.739Z,100238.90
2023-03-21T19:29:04.586Z,100237.44
2023-03-21T19:32:28.953Z,100239.66
2023-03-21T19:36:13.056Z,100236.85
2023-03-21T19:39:25.267Z,100238.69
2023-03-21T19:42:53.585Z,100240.73
2023-03-21T19:46:03.264Z,100240.20
2023-03-21T19:49:19.762Z,100234.64
2023-03-21T19:52:47.562Z,100233.37
2023-03-21T19:56:22.865Z,100232.16
2023-03-21T19:59:24.578Z,100232.62
2023-03-21T20:02:37.256Z,100231.74
2023-03-21T20:06:04.675Z,100235.27
2023-03-21T20:12:20.680Z,100237.54
2023-03-21T20:15:54.721Z,100234.15
2023-03-21T20:19:17.974Z,100240.54
2023-03-21T20:26:14.040Z,100231.74
2023-03-21T20:30:08.845Z,100230.14
2023-03-21T20:33:10.313Z,100227.42
2023-03-21T20:36:40.862Z,100228.67
2023-03-21T20:40:06.545Z,100231.95
2023-03-21T20:44:24.444Z,100229.42
2023-03-21T20:47:02.387Z,100230.89
2023-03-21T20:50:11.294Z,100228.13
2023-03-21T20:53:39.938Z,100226.59
2023-03-21T20:57:07.826Z,100225.90
2023-03-21T21:00:35.761Z,100230.88
2023-03-21T21:03:29.039Z,100235.19
2023-03-21T21:06:56.982Z,100235.33
2023-03-21T21:10:25.906Z,100241.37
2023-03-21T21:13:34.618Z,100243.42
2023-03-21T21:16:59.054Z,100242.70
2023-03-21T21:20:08.952Z,100250.69
2023-03-21T21:23:36.180Z,100248.70
2023-03-21T21:27:03.950Z,100250.58
2023-03-21T21:30:14.001Z,100245.14
2023-03-21T21:32:42.436Z,100248.39
2023-03-21T21:35:32.751Z,100248.52
2023-03-21T21:38:44.402Z,100252.83
2023-03-21T21:41:32.981Z,100255.43
2023-03-21T21:44:25.288Z,100259.52
2023-03-21T21:47:53.494Z,100253.33
2023-03-21T21:51:02.890Z,100256.98
2023-03-21T21:54:11.251Z,100262.20
2023-03-21T21:57:19.696Z,100262.95
2023-03-21T22:00:47.522Z,100266.48
2023-03-21T22:03:34.394Z,100264.05
2023-03-21T22:06:23.225Z,100269.83
2023-03-21T22:09:51.808Z,100263.45
2023-03-21T22:13:20.027Z,100272.86
2023-03-21T22:20:17.381Z,100280.98
2023-03-21T22:23:45.345Z,100285.69
2023-03-21T22:27:13.070Z,100291.25
2023-03-21T22:30:41.001Z,100289.27
2023-03-21T22:33:18.879Z,100293.50
2023-03-21T22:36:27.962Z,100284.35
2023-03-21T22:39:55.629Z,100285.98
2023-03-21T22:43:04.751Z,100290.39
2023-03-21T22:46:14.468Z,100284.27
2023-03-21T22:49:42.514Z,100286.98
2023-03-21T22:52:50.907Z,100285.52
2023-03-21T22:55:19.413Z,100281.94
2023-03-21T22:58:47.150Z,100281.27
2023-03-21T23:01:55.839Z,100286.41
2023-03-21T23:05:23.849Z,100277.20
2023-03-21T23:08:21.506Z,100280.60
2023-03-21T23:11:49.276Z,100279.13
2023-03-21T23:14:57.557Z,100277.27
2023-03-21T23:18:09.457Z,100278.64
2023-03-21T23:21:18.396Z,100280.77
2023-03-21T23:24:46.476Z,100279.73
2023-03-21T23:28:14.092Z,100283.98
2023-03-21T23:31:22.650Z,100281.05
2023-03-21T23:34:50.419Z,100284.38
2023-03-21T23:37:59.129Z,100285.23
2023-03-21T23:41:27.013Z,100289.86
2023-03-21T23:44:35.291Z,100290.92
2023-03-21T23:48:03.321Z,100289.41
2023-03-21T23:51:31.131Z,100292.66
2023-03-21T23:54:59.116Z,100288.84
2023-03-21T23:58:26.886Z,100285.21
